Time;durP1;ratioP1;P1;durP2;ratioP2;P2;SDS_P1;SDS_P2;PMS_P1;PMS_P2;Temp;Humidity;BMP_temperature;BMP_pressure;BME280_temperature;BME280_humidity;BME280_pressure;Samples;Min_cycle;Max_cycle;Signal;HPM_P1;HPM_P2
2023/03/18 00:01:02;;;;;;;0.90;0.80;;;;;;;;;;4567383;27;20036;-59
2023/03/18 00:03:13;;;;;;;0.98;0.80;;;;;;;;;;4552220;28;20029;-59
2023/03/18 00:05:23;;;;;;;0.93;0.77;;;;;;;;;;4568212;28;20028;-59
2023/03/18 00:07:36;;;;;;;0.75;0.60;;;;;;;;;;4566140;28;20425;-60
2023/03/18 00:09:46;;;;;;;0.80;0.68;;;;;;;;;;4565552;27;20041;-59
2023/03/18 00:11:57;;;;;;;0.95;0.70;;;;;;;;;;4567836;27;30554;-59
2023/03/18 00:14:08;;;;;;;1.65;0.70;;;;;;;;;;4564912;28;20048;-59
2023/03/18 00:16:20;;;;;;;0.93;0.80;;;;;;;;;;4569306;28;20039;-59
2023/03/18 00:18:31;;;;;;;1.42;0.80;;;;;;;;;;4564973;28;20050;-59
2023/03/18 00:20:42;;;;;;;0.82;0.68;;;;;;;;;;4567823;28;20132;-59
2023/03/18 00:22:52;;;;;;;1.38;0.80;;;;;;;;;;4567524;28;20032;-60
2023/03/18 00:25:04;;;;;;;1.35;0.80;;;;;;;;;;4566550;27;20392;-58
2023/03/18 00:27:15;;;;;;;1.38;0.70;;;;;;;;;;4566924;28;20587;-58
2023/03/18 00:29:25;;;;;;;0.60;0.60;;;;;;;;;;4566038;27;20028;-60
2023/03/18 00:31:37;;;;;;;1.25;0.75;;;;;;;;;;4559045;27;20596;-60
2023/03/18 00:33:49;;;;;;;0.60;0.60;;;;;;;;;;4565832;28;20157;-60
2023/03/18 00:35:59;;;;;;;1.13;0.80;;;;;;;;;;4560663;27;20610;-60
2023/03/18 00:38:19;;;;;;;0.68;0.65;;;;;;;;;;4567343;27;20032;-60
2023/03/18 00:40:41;;;;;;;0.70;0.60;;;;;;;;;;4572435;27;20779;-60
2023/03/18 00:43:00;;;;;;;1.00;0.80;;;;;;;;;;4561419;27;20032;-60
2023/03/18 00:45:10;;;;;;;1.13;0.82;;;;;;;;;;4549943;28;20131;-60
2023/03/18 00:47:22;;;;;;;1.45;1.00;;;;;;;;;;4561869;27;20027;-60
2023/03/18 00:49:32;;;;;;;0.80;0.70;;;;;;;;;;4566417;28;20526;-59
2023/03/18 00:51:43;;;;;;;0.98;0.63;;;;;;;;;;4567631;28;20073;-60
2023/03/18 00:53:57;;;;;;;0.95;0.80;;;;;;;;;;4569766;27;20076;-60
2023/03/18 00:56:08;;;;;;;0.60;0.60;;;;;;;;;;4567578;27;20669;-60
2023/03/18 00:58:19;;;;;;;1.30;0.93;;;;;;;;;;4565736;28;20039;-60
2023/03/18 01:00:29;;;;;;;0.85;0.75;;;;;;;;;;4559711;27;20025;-60
2023/03/18 01:02:40;;;;;;;0.93;0.80;;;;;;;;;;4567310;28;20696;-60
2023/03/18 01:04:51;;;;;;;1.00;0.70;;;;;;;;;;4548114;28;20076;-59
2023/03/18 01:07:04;;;;;;;0.82;0.70;;;;;;;;;;4568399;28;20055;-60
2023/03/18 01:09:15;;;;;;;0.95;0.60;;;;;;;;;;4559317;27;20796;-60
2023/03/18 01:11:26;;;;;;;0.77;0.73;;;;;;;;;;4567098;27;20024;-60
2023/03/18 01:13:37;;;;;;;1.25;0.80;;;;;;;;;;4568105;27;20028;-60
2023/03/18 01:15:47;;;;;;;0.70;0.70;;;;;;;;;;4565649;27;20583;-60
2023/03/18 01:17:58;;;;;;;0.70;0.70;;;;;;;;;;4567161;28;20583;-60
2023/03/18 01:20:11;;;;;;;0.80;0.70;;;;;;;;;;4547527;28;20032;-60
2023/03/18 01:22:23;;;;;;;0.85;0.70;;;;;;;;;;4552207;27;20028;-60
2023/03/18 01:24:35;;;;;;;0.95;0.80;;;;;;;;;;4565774;28;20636;-60
2023/03/18 01:26:45;;;;;;;1.02;0.82;;;;;;;;;;4566080;27;20032;-60
2023/03/18 01:28:56;;;;;;;1.00;0.90;;;;;;;;;;4568670;28;20032;-60
2023/03/18 01:31:07;;;;;;;1.08;0.70;;;;;;;;;;4564249;28;20027;-60
2023/03/18 01:33:18;;;;;;;0.80;0.70;;;;;;;;;;4565210;28;20044;-59
2023/03/18 01:35:29;;;;;;;1.10;1.00;;;;;;;;;;4567918;28;20035;-60
2023/03/18 01:37:40;;;;;;;0.90;0.60;;;;;;;;;;4586635;27;20043;-60
2023/03/18 01:39:55;;;;;;;0.93;0.90;;;;;;;;;;4568862;28;20058;-60
2023/03/18 01:42:07;;;;;;;0.80;0.60;;;;;;;;;;4565766;27;20185;-60
2023/03/18 01:44:20;;;;;;;1.13;0.75;;;;;;;;;;4567802;28;20696;-60
2023/03/18 01:46:33;;;;;;;1.23;0.70;;;;;;;;;;4566958;28;20036;-60
2023/03/18 01:48:44;;;;;;;0.77;0.77;;;;;;;;;;4566379;28;20028;-60
2023/03/18 01:51:07;;;;;;;0.80;0.60;;;;;;;;;;4549161;28;20021;-60
2023/03/18 01:53:19;;;;;;;1.17;0.75;;;;;;;;;;4554681;28;21003;-60
2023/03/18 01:55:30;;;;;;;1.45;0.80;;;;;;;;;;4566558;28;20032;-59
2023/03/18 01:57:42;;;;;;;1.05;0.80;;;;;;;;;;4568880;28;20032;-60
2023/03/18 01:59:54;;;;;;;1.35;0.80;;;;;;;;;;4552131;28;20764;-60
2023/03/18 02:02:10;;;;;;;0.85;0.80;;;;;;;;;;4566505;27;20128;-60
2023/03/18 02:04:25;;;;;;;1.38;0.90;;;;;;;;;;4547573;28;21111;-59
2023/03/18 02:06:37;;;;;;;1.40;0.90;;;;;;;;;;4567683;27;20032;-60
2023/03/18 02:08:48;;;;;;;0.98;0.80;;;;;;;;;;4570180;27;20040;-60
2023/03/18 02:10:58;;;;;;;0.95;0.70;;;;;;;;;;4568096;27;20103;-60
2023/03/18 02:13:11;;;;;;;0.70;0.70;;;;;;;;;;4565631;28;20036;-60
2023/03/18 02:15:25;;;;;;;0.85;0.68;;;;;;;;;;4537232;28;20036;-60
2023/03/18 02:17:40;;;;;;;0.85;0.60;;;;;;;;;;4568019;27;20079;-60
2023/03/18 02:20:18;;;;;;;1.63;0.70;;;;;;;;;;4567742;28;20091;-60
2023/03/18 02:22:40;;;;;;;1.38;0.90;;;;;;;;;;4570864;28;20043;-60
2023/03/18 02:25:30;;;;;;;1.27;0.70;;;;;;;;;;4556020;28;20110;-60
2023/03/18 02:27:44;;;;;;;0.80;0.70;;;;;;;;;;4571008;27;20143;-61
2023/03/18 02:30:00;;;;;;;1.00;0.80;;;;;;;;;;4571655;27;20862;-60
2023/03/18 02:32:14;;;;;;;1.23;0.70;;;;;;;;;;4555366;28;21000;-60
2023/03/18 02:34:25;;;;;;;1.17;0.73;;;;;;;;;;4570442;28;20072;-60
2023/03/18 02:36:38;;;;;;;0.77;0.63;;;;;;;;;;4557369;28;20078;-60
2023/03/18 02:38:52;;;;;;;1.25;0.70;;;;;;;;;;4550956;28;20032;-59
2023/03/18 02:41:13;;;;;;;1.50;0.77;;;;;;;;;;4570891;27;20086;-60
2023/03/18 02:43:30;;;;;;;0.70;0.60;;;;;;;;;;4572135;27;20821;-60
2023/03/18 02:46:08;;;;;;;1.23;0.60;;;;;;;;;;4554528;28;20599;-60
2023/03/18 02:48:19;;;;;;;0.93;0.75;;;;;;;;;;4583831;27;21129;-60
2023/03/18 02:50:30;;;;;;;1.15;0.70;;;;;;;;;;4560077;27;20029;-60
2023/03/18 02:52:41;;;;;;;0.82;0.60;;;;;;;;;;4569734;27;20067;-60
2023/03/18 02:54:52;;;;;;;0.57;0.57;;;;;;;;;;4566897;28;20024;-60
2023/03/18 02:57:02;;;;;;;0.93;0.60;;;;;;;;;;4573577;27;20044;-59
2023/03/18 02:59:13;;;;;;;0.68;0.60;;;;;;;;;;4567021;28;20020;-60
2023/03/18 03:01:24;;;;;;;0.63;0.60;;;;;;;;;;4567178;27;20035;-60
2023/03/18 03:03:35;;;;;;;0.82;0.68;;;;;;;;;;4567638;27;20043;-60
2023/03/18 03:05:46;;;;;;;1.05;0.80;;;;;;;;;;4568012;28;20040;-60
2023/03/18 03:07:56;;;;;;;1.38;0.75;;;;;;;;;;4550866;28;20048;-61
2023/03/18 03:10:07;;;;;;;0.88;0.60;;;;;;;;;;4568570;27;20024;-60
2023/03/18 03:12:18;;;;;;;0.75;0.70;;;;;;;;;;4570965;28;20511;-60
2023/03/18 03:14:34;;;;;;;0.90;0.70;;;;;;;;;;4570784;28;21086;-60
2023/03/18 03:16:46;;;;;;;0.93;0.80;;;;;;;;;;4566952;28;20132;-60
2023/03/18 03:18:57;;;;;;;1.30;0.65;;;;;;;;;;4551863;28;20412;-60
2023/03/18 03:21:08;;;;;;;1.17;0.70;;;;;;;;;;4567420;27;20587;-60
2023/03/18 03:23:19;;;;;;;1.02;0.70;;;;;;;;;;4568968;28;20583;-61
2023/03/18 03:25:32;;;;;;;1.70;0.70;;;;;;;;;;4569279;28;20101;-60
2023/03/18 03:27:43;;;;;;;0.63;0.63;;;;;;;;;;4561571;27;20082;-60
2023/03/18 03:29:54;;;;;;;1.65;0.77;;;;;;;;;;4565621;28;20033;-60
2023/03/18 03:32:05;;;;;;;0.98;0.60;;;;;;;;;;4569568;28;20778;-60
2023/03/18 03:34:16;;;;;;;0.80;0.70;;;;;;;;;;4569884;28;20064;-60
2023/03/18 03:36:27;;;;;;;0.70;0.55;;;;;;;;;;4569403;28;20703;-60
2023/03/18 03:38:40;;;;;;;1.17;0.77;;;;;;;;;;4567672;28;20154;-60
2023/03/18 03:40:52;;;;;;;0.50;0.50;;;;;;;;;;4569915;27;20113;-60
2023/03/18 03:43:03;;;;;;;1.23;0.80;;;;;;;;;;4571291;28;20043;-60
2023/03/18 03:45:15;;;;;;;1.38;0.80;;;;;;;;;;4553317;28;20084;-60
2023/03/18 03:47:26;;;;;;;0.93;0.63;;;;;;;;;;4515611;28;20098;-60
2023/03/18 03:49:37;;;;;;;0.73;0.68;;;;;;;;;;4537793;28;20060;-60
2023/03/18 03:51:47;;;;;;;1.30;0.75;;;;;;;;;;4568479;28;20021;-61
2023/03/18 03:53:58;;;;;;;0.82;0.68;;;;;;;;;;4554131;28;20126;-60
2023/03/18 03:56:10;;;;;;;0.73;0.70;;;;;;;;;;4548321;28;20025;-59
2023/03/18 03:58:21;;;;;;;0.98;0.68;;;;;;;;;;4569082;28;20786;-60
2023/03/18 04:00:32;;;;;;;0.70;0.60;;;;;;;;;;4536435;28;20037;-60
2023/03/18 04:02:43;;;;;;;0.80;0.68;;;;;;;;;;4550031;28;20055;-60
2023/03/18 04:04:55;;;;;;;0.90;0.60;;;;;;;;;;4543618;28;20037;-59
2023/03/18 04:07:13;;;;;;;0.73;0.70;;;;;;;;;;4552510;28;20098;-60
2023/03/18 04:09:24;;;;;;;0.70;0.70;;;;;;;;;;4534277;28;20063;-60
2023/03/18 04:11:34;;;;;;;0.73;0.70;;;;;;;;;;4550695;28;20725;-60
2023/03/18 04:13:45;;;;;;;0.57;0.50;;;;;;;;;;4566814;28;20172;-60
2023/03/18 04:15:55;;;;;;;1.45;0.60;;;;;;;;;;4535531;28;20095;-60
2023/03/18 04:18:06;;;;;;;0.90;0.80;;;;;;;;;;4550007;28;20269;-60
2023/03/18 04:20:17;;;;;;;0.80;0.70;;;;;;;;;;4548330;28;20032;-62
2023/03/18 04:22:29;;;;;;;1.40;0.70;;;;;;;;;;4545401;28;20040;-60
2023/03/18 04:24:40;;;;;;;0.65;0.65;;;;;;;;;;4534203;28;20037;-61
2023/03/18 04:26:51;;;;;;;0.70;0.70;;;;;;;;;;4536512;28;20025;-59
2023/03/18 04:29:02;;;;;;;1.08;0.80;;;;;;;;;;4569523;28;20743;-60
2023/03/18 04:31:13;;;;;;;0.98;0.60;;;;;;;;;;4548979;28;20033;-60
2023/03/18 04:33:24;;;;;;;0.80;0.68;;;;;;;;;;4550206;28;20029;-60
2023/03/18 04:35:35;;;;;;;1.17;0.70;;;;;;;;;;4569074;28;20405;-60
2023/03/18 04:37:47;;;;;;;0.95;0.70;;;;;;;;;;4567943;28;20587;-60
2023/03/18 04:39:58;;;;;;;0.68;0.60;;;;;;;;;;4566944;28;20032;-60
2023/03/18 04:42:08;;;;;;;0.60;0.60;;;;;;;;;;4567976;28;20032;-60
2023/03/18 04:44:19;;;;;;;1.13;0.60;;;;;;;;;;4568873;28;20821;-60
2023/03/18 04:46:35;;;;;;;0.73;0.60;;;;;;;;;;4535682;28;20040;-60
2023/03/18 04:48:45;;;;;;;1.15;0.80;;;;;;;;;;4549235;28;21165;-60
2023/03/18 04:50:56;;;;;;;0.50;0.50;;;;;;;;;;4549755;28;20079;-60
2023/03/18 04:53:11;;;;;;;0.80;0.60;;;;;;;;;;4568135;28;20043;-60
2023/03/18 04:55:22;;;;;;;0.77;0.77;;;;;;;;;;4550366;28;20037;-60
2023/03/18 04:57:34;;;;;;;1.10;0.80;;;;;;;;;;4569433;28;20086;-60
2023/03/18 04:59:45;;;;;;;0.60;0.60;;;;;;;;;;4566567;28;20082;-60
2023/03/18 05:01:56;;;;;;;0.77;0.77;;;;;;;;;;4570568;28;20107;-60
2023/03/18 05:04:07;;;;;;;1.42;0.85;;;;;;;;;;4549934;28;20029;-60
2023/03/18 05:06:30;;;;;;;0.70;0.70;;;;;;;;;;4568711;28;20109;-60
2023/03/18 05:08:46;;;;;;;0.70;0.70;;;;;;;;;;4536302;28;20043;-60
2023/03/18 05:10:56;;;;;;;0.77;0.60;;;;;;;;;;4552394;28;20107;-60
2023/03/18 05:13:08;;;;;;;1.20;0.90;;;;;;;;;;4543631;28;20032;-60
2023/03/18 05:15:20;;;;;;;1.02;0.80;;;;;;;;;;4551859;28;20106;-60
2023/03/18 05:17:37;;;;;;;0.60;0.60;;;;;;;;;;4564835;28;20428;-60
2023/03/18 05:19:48;;;;;;;0.80;0.70;;;;;;;;;;4567102;28;20036;-60
2023/03/18 05:22:02;;;;;;;0.88;0.70;;;;;;;;;;4553429;28;20171;-61
2023/03/18 05:24:14;;;;;;;0.85;0.65;;;;;;;;;;4565038;28;20549;-60
2023/03/18 05:26:26;;;;;;;0.88;0.70;;;;;;;;;;4551756;28;20036;-60
2023/03/18 05:28:39;;;;;;;1.63;1.45;;;;;;;;;;4550008;28;20087;-60
2023/03/18 05:31:07;;;;;;;1.40;0.90;;;;;;;;;;4549943;28;20159;-60
2023/03/18 05:33:22;;;;;;;0.88;0.80;;;;;;;;;;4543468;28;20219;-62
2023/03/18 05:35:38;;;;;;;0.82;0.70;;;;;;;;;;4544077;28;20118;-60
2023/03/18 05:37:48;;;;;;;1.17;1.08;;;;;;;;;;4533096;28;20186;-60
2023/03/18 05:40:00;;;;;;;1.27;1.00;;;;;;;;;;4552659;28;20831;-61
2023/03/18 05:42:13;;;;;;;1.90;0.95;;;;;;;;;;4569125;28;20039;-60
2023/03/18 05:44:23;;;;;;;0.85;0.80;;;;;;;;;;4567966;27;20226;-61
2023/03/18 05:46:35;;;;;;;0.80;0.80;;;;;;;;;;4554134;28;20135;-61
2023/03/18 05:49:00;;;;;;;1.13;0.80;;;;;;;;;;4560571;27;20034;-61
2023/03/18 05:51:15;;;;;;;1.45;1.00;;;;;;;;;;4567627;28;20032;-61
2023/03/18 05:53:26;;;;;;;1.77;1.50;;;;;;;;;;4558610;27;20512;-60
2023/03/18 05:55:45;;;;;;;1.00;0.90;;;;;;;;;;4568366;28;20028;-61
2023/03/18 05:57:57;;;;;;;1.42;0.80;;;;;;;;;;4563810;28;20039;-61
2023/03/18 06:00:12;;;;;;;1.20;1.10;;;;;;;;;;4568980;28;20046;-60
2023/03/18 06:02:31;;;;;;;1.17;1.05;;;;;;;;;;4566113;28;20127;-59
2023/03/18 06:04:42;;;;;;;0.95;0.95;;;;;;;;;;4565173;28;20510;-61
2023/03/18 06:06:52;;;;;;;1.35;0.95;;;;;;;;;;4565273;28;20431;-61
2023/03/18 06:09:03;;;;;;;1.08;0.90;;;;;;;;;;4564892;27;20175;-61
2023/03/18 06:11:14;;;;;;;1.15;0.70;;;;;;;;;;4545443;28;20131;-61
2023/03/18 06:13:24;;;;;;;0.82;0.80;;;;;;;;;;4547692;28;20039;-61
2023/03/18 06:15:35;;;;;;;1.00;0.80;;;;;;;;;;4566136;28;20070;-61
2023/03/18 06:17:46;;;;;;;1.02;0.70;;;;;;;;;;4584299;27;20150;-61
2023/03/18 06:19:57;;;;;;;0.90;0.70;;;;;;;;;;4562640;28;20020;-61
2023/03/18 06:22:08;;;;;;;0.88;0.75;;;;;;;;;;4548525;28;20159;-61
2023/03/18 06:24:20;;;;;;;1.02;0.75;;;;;;;;;;4568084;27;20032;-60
2023/03/18 06:26:30;;;;;;;1.08;0.70;;;;;;;;;;4559192;27;20970;-60
2023/03/18 06:28:40;;;;;;;1.00;0.80;;;;;;;;;;4564142;27;20094;-61
2023/03/18 06:30:56;;;;;;;0.70;0.70;;;;;;;;;;4568536;28;20028;-61
2023/03/18 06:33:07;;;;;;;1.23;0.70;;;;;;;;;;4531420;28;20639;-61
2023/03/18 06:35:18;;;;;;;1.10;0.80;;;;;;;;;;4551948;28;20334;-61
2023/03/18 06:37:28;;;;;;;1.15;0.75;;;;;;;;;;4585692;27;20039;-61
2023/03/18 06:39:38;;;;;;;1.13;0.70;;;;;;;;;;4581176;27;20039;-61
2023/03/18 06:41:51;;;;;;;1.10;0.75;;;;;;;;;;4563995;27;20039;-62
2023/03/18 06:44:14;;;;;;;0.90;0.70;;;;;;;;;;4566160;28;20805;-61
2023/03/18 06:46:25;;;;;;;0.55;0.55;;;;;;;;;;4567135;27;20039;-61
2023/03/18 06:48:39;;;;;;;0.93;0.70;;;;;;;;;;4568817;28;20032;-61
2023/03/18 06:50:49;;;;;;;1.10;0.75;;;;;;;;;;4549039;28;20028;-61
2023/03/18 06:53:07;;;;;;;1.15;0.70;;;;;;;;;;4584357;27;20105;-61
2023/03/18 06:55:18;;;;;;;0.90;0.60;;;;;;;;;;4567065;28;20081;-60
2023/03/18 06:57:29;;;;;;;0.60;0.60;;;;;;;;;;4566176;28;20090;-61
2023/03/18 06:59:40;;;;;;;0.93;0.70;;;;;;;;;;4566230;27;20565;-63
2023/03/18 07:01:51;;;;;;;0.73;0.73;;;;;;;;;;4566581;27;20036;-62
2023/03/18 07:04:05;;;;;;;1.13;0.80;;;;;;;;;;4566182;27;20028;-61
2023/03/18 07:06:17;;;;;;;0.93;0.70;;;;;;;;;;4569542;28;20040;-61
2023/03/18 07:08:28;;;;;;;1.13;0.75;;;;;;;;;;4569570;28;20028;-60
2023/03/18 07:10:39;;;;;;;0.70;0.70;;;;;;;;;;4590610;27;20986;-61
2023/03/18 07:12:56;;;;;;;0.60;0.60;;;;;;;;;;4570491;28;20024;-61
2023/03/18 07:15:07;;;;;;;0.77;0.60;;;;;;;;;;4573302;27;20166;-61
2023/03/18 07:17:18;;;;;;;0.70;0.63;;;;;;;;;;4572903;28;20133;-59
2023/03/18 07:19:31;;;;;;;0.60;0.60;;;;;;;;;;4572751;28;20817;-62
2023/03/18 07:21:42;;;;;;;0.80;0.68;;;;;;;;;;4573762;27;20142;-60
2023/03/18 07:23:54;;;;;;;0.80;0.80;;;;;;;;;;4573757;27;20042;-60
2023/03/18 07:26:04;;;;;;;0.55;0.55;;;;;;;;;;4571032;28;20080;-61
2023/03/18 07:28:15;;;;;;;0.77;0.60;;;;;;;;;;4576163;27;20036;-61
2023/03/18 07:30:27;;;;;;;0.98;0.70;;;;;;;;;;4552673;28;20099;-61
2023/03/18 07:32:38;;;;;;;0.60;0.60;;;;;;;;;;4574980;27;20484;-61
2023/03/18 07:34:48;;;;;;;0.70;0.70;;;;;;;;;;4570104;28;20078;-60
2023/03/18 07:36:59;;;;;;;0.85;0.70;;;;;;;;;;4570192;28;20036;-61
2023/03/18 07:39:09;;;;;;;0.77;0.70;;;;;;;;;;4569696;28;20031;-60
2023/03/18 07:41:20;;;;;;;1.23;0.70;;;;;;;;;;4565943;28;20171;-61
2023/03/18 07:43:30;;;;;;;0.93;0.70;;;;;;;;;;4572376;28;20443;-60
2023/03/18 07:45:41;;;;;;;0.90;0.80;;;;;;;;;;4573871;28;20953;-60
2023/03/18 07:47:52;;;;;;;1.25;0.70;;;;;;;;;;4571809;28;20035;-60
2023/03/18 07:50:03;;;;;;;0.70;0.70;;;;;;;;;;4570328;28;20109;-61
2023/03/18 07:52:13;;;;;;;0.95;0.80;;;;;;;;;;4571647;28;20032;-61
2023/03/18 07:54:24;;;;;;;0.90;0.73;;;;;;;;;;4570603;28;20028;-61
2023/03/18 07:56:34;;;;;;;0.80;0.80;;;;;;;;;;4571654;28;20448;-61
2023/03/18 07:58:45;;;;;;;1.05;0.82;;;;;;;;;;4569307;27;20097;-61
2023/03/18 08:00:56;;;;;;;0.60;0.60;;;;;;;;;;4570168;28;20055;-59
2023/03/18 08:03:08;;;;;;;0.88;0.70;;;;;;;;;;4568942;28;20033;-59
2023/03/18 08:05:18;;;;;;;0.80;0.80;;;;;;;;;;4571119;28;20071;-59
2023/03/18 08:07:29;;;;;;;0.85;0.85;;;;;;;;;;4570063;27;20044;-60
2023/03/18 08:09:40;;;;;;;0.80;0.80;;;;;;;;;;4570517;28;20024;-59
2023/03/18 08:11:50;;;;;;;0.80;0.73;;;;;;;;;;4570677;28;20147;-59
2023/03/18 08:14:00;;;;;;;0.70;0.70;;;;;;;;;;4572683;28;20032;-59
2023/03/18 08:16:11;;;;;;;0.85;0.85;;;;;;;;;;4569904;28;20507;-59
2023/03/18 08:18:22;;;;;;;0.70;0.70;;;;;;;;;;4569417;27;20048;-59
2023/03/18 08:20:33;;;;;;;0.65;0.60;;;;;;;;;;4569296;27;20040;-59
2023/03/18 08:22:44;;;;;;;1.63;0.82;;;;;;;;;;4570108;28;22219;-58
2023/03/18 08:24:56;;;;;;;0.75;0.75;;;;;;;;;;4571430;28;20464;-59
2023/03/18 08:27:08;;;;;;;1.00;0.90;;;;;;;;;;4586067;27;20782;-60
2023/03/18 08:29:18;;;;;;;0.70;0.70;;;;;;;;;;4570292;28;20619;-59
2023/03/18 08:31:29;;;;;;;0.90;0.85;;;;;;;;;;4570741;28;20035;-58
2023/03/18 08:33:40;;;;;;;0.77;0.77;;;;;;;;;;4569354;28;20036;-60
2023/03/18 08:35:50;;;;;;;1.10;0.80;;;;;;;;;;4569504;27;20603;-59
2023/03/18 08:38:01;;;;;;;0.70;0.70;;;;;;;;;;4572496;27;20127;-60
2023/03/18 08:40:12;;;;;;;1.00;0.70;;;;;;;;;;4549970;28;20041;-61
2023/03/18 08:42:22;;;;;;;0.93;0.85;;;;;;;;;;4569331;28;20028;-61
2023/03/18 08:44:33;;;;;;;1.25;0.70;;;;;;;;;;4570258;28;20490;-61
2023/03/18 08:46:43;;;;;;;0.80;0.70;;;;;;;;;;4569779;28;20036;-60
2023/03/18 08:48:53;;;;;;;1.17;0.80;;;;;;;;;;4567648;28;20486;-63
2023/03/18 08:51:07;;;;;;;0.85;0.80;;;;;;;;;;4568101;28;20079;-62
2023/03/18 08:53:18;;;;;;;1.02;0.80;;;;;;;;;;4568329;28;20193;-63
2023/03/18 08:55:30;;;;;;;0.68;0.68;;;;;;;;;;4570400;28;20123;-64
2023/03/18 08:57:41;;;;;;;0.80;0.80;;;;;;;;;;4569552;28;20051;-61
2023/03/18 08:59:52;;;;;;;1.00;0.88;;;;;;;;;;4568390;28;20043;-63
2023/03/18 09:02:03;;;;;;;0.80;0.80;;;;;;;;;;4551951;28;20029;-61
2023/03/18 09:04:14;;;;;;;1.00;0.90;;;;;;;;;;4550320;28;20033;-60
2023/03/18 09:06:26;;;;;;;0.80;0.80;;;;;;;;;;4568213;28;20040;-60
2023/03/18 09:08:38;;;;;;;0.70;0.70;;;;;;;;;;4570232;28;20048;-60
2023/03/18 09:10:52;;;;;;;1.17;0.80;;;;;;;;;;4568930;28;20031;-60
2023/03/18 09:13:04;;;;;;;0.80;0.80;;;;;;;;;;4568778;28;20161;-61
2023/03/18 09:15:15;;;;;;;0.90;0.80;;;;;;;;;;4568150;28;20027;-61
2023/03/18 09:17:26;;;;;;;0.90;0.90;;;;;;;;;;4567055;28;20048;-62
2023/03/18 09:19:37;;;;;;;0.80;0.80;;;;;;;;;;4569124;27;20477;-61
2023/03/18 09:21:47;;;;;;;0.80;0.80;;;;;;;;;;4568105;28;20043;-62
2023/03/18 09:23:58;;;;;;;0.95;0.95;;;;;;;;;;4567956;28;24415;-61
2023/03/18 09:26:08;;;;;;;1.45;1.10;;;;;;;;;;4569646;28;20043;-61
2023/03/18 09:28:18;;;;;;;1.25;0.88;;;;;;;;;;4564728;27;21011;-61
2023/03/18 09:30:29;;;;;;;0.93;0.80;;;;;;;;;;4569007;28;20040;-61
2023/03/18 09:32:39;;;;;;;0.90;0.90;;;;;;;;;;4588036;27;20020;-61
2023/03/18 09:34:50;;;;;;;1.00;0.90;;;;;;;;;;4568414;28;20071;-61
2023/03/18 09:37:01;;;;;;;0.80;0.80;;;;;;;;;;4563430;28;20044;-61
2023/03/18 09:39:11;;;;;;;0.80;0.80;;;;;;;;;;4570079;28;26783;-61
2023/03/18 09:41:37;;;;;;;0.80;0.80;;;;;;;;;;4568253;27;20038;-62
2023/03/18 09:44:08;;;;;;;1.10;1.00;;;;;;;;;;4567350;28;20036;-60
2023/03/18 09:47:00;;;;;;;0.80;0.77;;;;;;;;;;4550981;28;20698;-61
2023/03/18 09:49:48;;;;;;;0.73;0.73;;;;;;;;;;4570306;28;20052;-62
2023/03/18 09:52:38;;;;;;;1.10;0.80;;;;;;;;;;4569217;28;20032;-61
2023/03/18 09:55:11;;;;;;;0.85;0.85;;;;;;;;;;4489017;28;20121;-61
2023/03/18 09:57:25;;;;;;;0.50;0.50;;;;;;;;;;4569777;28;20630;-61
2023/03/18 09:59:49;;;;;;;0.85;0.70;;;;;;;;;;4555921;28;20047;-61
2023/03/18 10:01:59;;;;;;;0.63;0.63;;;;;;;;;;4530261;28;20044;-61
2023/03/18 10:04:20;;;;;;;0.60;0.60;;;;;;;;;;4533762;28;29253;-61
2023/03/18 10:06:31;;;;;;;0.80;0.60;;;;;;;;;;4552583;28;20064;-61
2023/03/18 10:09:00;;;;;;;0.70;0.60;;;;;;;;;;4553359;28;20594;-61
2023/03/18 10:11:32;;;;;;;0.60;0.60;;;;;;;;;;4569108;28;20641;-61
2023/03/18 10:14:24;;;;;;;0.80;0.80;;;;;;;;;;4553872;28;20040;-61
2023/03/18 10:16:46;;;;;;;1.13;0.60;;;;;;;;;;4569304;28;20707;-61
2023/03/18 10:18:57;;;;;;;1.10;0.93;;;;;;;;;;4552410;28;20657;-61
2023/03/18 10:21:39;;;;;;;0.75;0.70;;;;;;;;;;4536454;28;20055;-61
2023/03/18 10:24:15;;;;;;;1.00;0.90;;;;;;;;;;4553297;28;20040;-61
2023/03/18 10:26:31;;;;;;;1.08;1.00;;;;;;;;;;4568400;28;20139;-61
2023/03/18 10:29:00;;;;;;;1.13;0.73;;;;;;;;;;4548258;28;20024;-61
2023/03/18 10:31:34;;;;;;;0.60;0.60;;;;;;;;;;4568421;28;20036;-61
2023/03/18 10:34:00;;;;;;;0.63;0.60;;;;;;;;;;4568842;28;20057;-61
2023/03/18 10:36:27;;;;;;;0.50;0.50;;;;;;;;;;4567457;28;20031;-62
2023/03/18 10:38:41;;;;;;;0.50;0.50;;;;;;;;;;4550193;28;20118;-61
2023/03/18 10:40:52;;;;;;;0.63;0.63;;;;;;;;;;4569875;27;20032;-61
2023/03/18 10:43:03;;;;;;;0.80;0.80;;;;;;;;;;4553548;28;20390;-61
2023/03/18 10:45:26;;;;;;;0.70;0.70;;;;;;;;;;4554774;28;20032;-61
2023/03/18 10:47:40;;;;;;;0.70;0.68;;;;;;;;;;4548122;28;20079;-62
2023/03/18 10:50:05;;;;;;;1.10;0.60;;;;;;;;;;4572729;28;20621;-62
2023/03/18 10:52:26;;;;;;;0.60;0.60;;;;;;;;;;4555014;28;20526;-61
2023/03/18 10:54:49;;;;;;;0.60;0.60;;;;;;;;;;4556224;28;20712;-61
2023/03/18 10:57:00;;;;;;;0.77;0.77;;;;;;;;;;4572697;28;20036;-61
2023/03/18 10:59:14;;;;;;;0.70;0.70;;;;;;;;;;4571910;28;20698;-62
2023/03/18 11:01:27;;;;;;;0.60;0.60;;;;;;;;;;4539801;28;20135;-62
2023/03/18 11:04:00;;;;;;;0.70;0.70;;;;;;;;;;4552050;28;20024;-62
2023/03/18 11:06:23;;;;;;;0.60;0.60;;;;;;;;;;4552091;28;20612;-62
2023/03/18 11:08:38;;;;;;;0.73;0.73;;;;;;;;;;4554201;28;20553;-62
2023/03/18 11:10:49;;;;;;;0.70;0.70;;;;;;;;;;4570187;28;20604;-62
2023/03/18 11:13:01;;;;;;;0.75;0.52;;;;;;;;;;4553094;28;20029;-62
2023/03/18 11:15:13;;;;;;;0.60;0.60;;;;;;;;;;4541279;28;20037;-62
2023/03/18 11:17:34;;;;;;;0.52;0.52;;;;;;;;;;4554713;28;20089;-62
2023/03/18 11:19:47;;;;;;;0.50;0.50;;;;;;;;;;4552899;28;20623;-62
2023/03/18 11:22:21;;;;;;;0.60;0.60;;;;;;;;;;4553131;28;20037;-62
2023/03/18 11:24:35;;;;;;;0.65;0.60;;;;;;;;;;4553214;28;20127;-62
2023/03/18 11:26:54;;;;;;;0.70;0.70;;;;;;;;;;4553629;28;20032;-62
2023/03/18 11:29:10;;;;;;;0.70;0.70;;;;;;;;;;4554946;28;20040;-62
2023/03/18 11:31:20;;;;;;;0.60;0.60;;;;;;;;;;4553846;28;21261;-62
2023/03/18 11:33:36;;;;;;;0.80;0.80;;;;;;;;;;4570904;28;20036;-62
2023/03/18 11:35:52;;;;;;;0.70;0.70;;;;;;;;;;4571653;28;20067;-62
2023/03/18 11:38:03;;;;;;;0.50;0.50;;;;;;;;;;4570324;28;20040;-62
2023/03/18 11:40:17;;;;;;;0.80;0.50;;;;;;;;;;4570870;28;20036;-63
2023/03/18 11:42:31;;;;;;;0.57;0.50;;;;;;;;;;4572862;28;20032;-62
2023/03/18 11:44:41;;;;;;;0.50;0.50;;;;;;;;;;4552849;28;20999;-62
2023/03/18 11:46:56;;;;;;;0.60;0.50;;;;;;;;;;4571765;28;20056;-62
2023/03/18 11:49:12;;;;;;;0.73;0.60;;;;;;;;;;4572099;28;20087;-62
2023/03/18 11:51:38;;;;;;;0.63;0.60;;;;;;;;;;4537898;28;20144;-61
2023/03/18 11:53:55;;;;;;;0.50;0.50;;;;;;;;;;4571910;28;20129;-62
2023/03/18 11:56:31;;;;;;;1.30;0.52;;;;;;;;;;4553769;28;20534;-62
2023/03/18 11:58:59;;;;;;;0.55;0.50;;;;;;;;;;4571556;28;20135;-61
2023/03/18 12:01:19;;;;;;;0.50;0.50;;;;;;;;;;4536585;28;20041;-62
2023/03/18 12:03:54;;;;;;;0.40;0.40;;;;;;;;;;4555904;28;20851;-62
2023/03/18 12:06:27;;;;;;;0.52;0.52;;;;;;;;;;4569804;28;20102;-62
2023/03/18 12:09:10;;;;;;;0.47;0.47;;;;;;;;;;4569815;28;20601;-62
2023/03/18 12:11:31;;;;;;;0.90;0.50;;;;;;;;;;4552415;28;20052;-62
2023/03/18 12:14:11;;;;;;;0.40;0.40;;;;;;;;;;4553600;28;20618;-63
2023/03/18 12:16:41;;;;;;;0.47;0.47;;;;;;;;;;4530575;28;20876;-62
2023/03/18 12:18:51;;;;;;;0.50;0.50;;;;;;;;;;4552906;28;20044;-62
2023/03/18 12:21:12;;;;;;;0.47;0.35;;;;;;;;;;4569828;28;20047;-62
2023/03/18 12:23:35;;;;;;;0.40;0.40;;;;;;;;;;4569066;28;20656;-62
2023/03/18 12:25:51;;;;;;;0.40;0.40;;;;;;;;;;4535098;28;20045;-67
2023/03/18 12:28:26;;;;;;;0.40;0.40;;;;;;;;;;4569255;28;20036;-62
2023/03/18 12:30:46;;;;;;;0.50;0.50;;;;;;;;;;4569783;28;20564;-62
2023/03/18 12:33:13;;;;;;;0.93;0.40;;;;;;;;;;4570562;28;20874;-61
2023/03/18 12:35:44;;;;;;;0.47;0.30;;;;;;;;;;4552872;28;20068;-61
2023/03/18 12:38:04;;;;;;;0.40;0.40;;;;;;;;;;4535716;28;20608;-61
2023/03/18 12:40:36;;;;;;;0.40;0.40;;;;;;;;;;4574464;27;20158;-61
2023/03/18 12:42:49;;;;;;;0.50;0.35;;;;;;;;;;4570554;28;20564;-62
2023/03/18 12:45:02;;;;;;;0.63;0.40;;;;;;;;;;4570876;27;20066;-61
2023/03/18 12:47:28;;;;;;;0.43;0.30;;;;;;;;;;4556714;28;20144;-61
2023/03/18 12:49:43;;;;;;;1.03;0.40;;;;;;;;;;4568352;28;20082;-61
2023/03/18 12:52:08;;;;;;;0.30;0.30;;;;;;;;;;4572245;28;20058;-62
2023/03/18 12:54:35;;;;;;;0.30;0.30;;;;;;;;;;4572391;28;20051;-61
2023/03/18 12:56:51;;;;;;;0.40;0.40;;;;;;;;;;4553156;28;20037;-61
2023/03/18 12:59:08;;;;;;;0.40;0.40;;;;;;;;;;4557580;28;20048;-61
2023/03/18 13:01:46;;;;;;;0.30;0.30;;;;;;;;;;4570874;28;20028;-61
2023/03/18 13:04:00;;;;;;;0.40;0.40;;;;;;;;;;4570459;27;20090;-61
2023/03/18 13:06:25;;;;;;;0.45;0.35;;;;;;;;;;4554741;28;20592;-61
2023/03/18 13:09:01;;;;;;;0.30;0.30;;;;;;;;;;4570214;28;20150;-61
2023/03/18 13:11:36;;;;;;;0.30;0.30;;;;;;;;;;4569792;28;20028;-61
2023/03/18 13:13:51;;;;;;;0.43;0.30;;;;;;;;;;4569097;28;20036;-61
2023/03/18 13:16:03;;;;;;;0.30;0.30;;;;;;;;;;4585806;27;20035;-61
2023/03/18 13:18:32;;;;;;;0.30;0.30;;;;;;;;;;4554431;28;20521;-62
2023/03/18 13:20:43;;;;;;;0.50;0.30;;;;;;;;;;4567325;27;20070;-61
2023/03/18 13:23:47;;;;;;;0.43;0.43;;;;;;;;;;4567468;28;20147;-62
2023/03/18 13:26:02;;;;;;;0.40;0.40;;;;;;;;;;4574971;27;20032;-61
2023/03/18 13:28:35;;;;;;;0.30;0.30;;;;;;;;;;4568066;28;20595;-61
2023/03/18 13:30:58;;;;;;;1.25;0.40;;;;;;;;;;4569794;28;20032;-61